Aérodrome :
LOGIN :

S'inscrire | Disclaimer

   EN    FR    IT 

 










Légende :    VFR   VFR Marginal   IFR   IFR Intensif   IFR Très Intensif
Visi : 
Plafond : 
>= 8 km
>= 3000ft
5 à 8 km
1000 à 3000 ft
1500m à 5 km
500 à 1000 ft
800 à 1500m
200 à 500 ft
< 800m
< 200 ft
Symboles :   Orages  Brouillard  Fortes neiges  Fortes précipitations  Vent > 20 kt
SIGMETs :   Divers  Orages  Givrage  Turbulence  Onde Orograph.  Cendres Volcan.







- Altitude de l'aérodrome : 39 ft
- Code IATA : TRS


LIPQ - Friuli Venezia Giulia Apt. Trieste

DERNIER METAR :
  • 130550Z 35004KT 9999 SCT090 03/M04 Q1017

METARs EXPIRÉS :
  • 130520Z 03003KT 360V070 9999 FEW090 03/M04 Q1017
  • 130450Z AUTO 01004KT 340V070 9999 BKN094/// 02/M04 Q1017
  • 130420Z AUTO 05003KT 9999 SCT096/// 02/M05 Q1017
  • 130350Z AUTO VRB02KT 9999 NCD 01/M06 Q1017
  • 130320Z AUTO 04003KT 9999 BKN087/// 01/M05 Q1017

TAF TAF LIPQ
Valide du 13 à 06h jusqu'au 14 à 06h UTC


130500Z 1306/1406 03010KT 9999 FEW030
TEMPO 1312/1316 RA
Pas de NOTAMs connus pour ce terrain.
1 SIGMET publié pour la FIR Milano (LIMM) :
 
Givrage fort
LIMM SIGMET 2 VALID 130530/130800 LIIP
LIMM MILANO FIR SEV ICE FCST WI N4421 E00652 - N4505 E00630 - N4553 E00650 - N4513 E00844 - N4505 E01150 - N4333 E01324 - N4343 E01113 - N4335 E01019 - N4417 E00900 - N4349 E00724 - N4421 E00652 FL020/120 STNR NC=



MET'MAP, la Météo Aéronautique d'un coup d'oeil ! - Copyright ORBIFLY Décembre 2007 - Disclaimer

ORBIFLY MET'MAP TEAM :

Programmation & Développement : Alexandra Zaïnal
Conception & Développement : Baudouin d'Aumeries
Co-Programmation & Développement : Marc-Olivier Méhu
Soutien technique & logistique : Manuel Goepfert

Contact : metmap@orbifly.com




SOURCES & CREDITS :

   NOAA